ADDS METAR Data INFO
IDs: Format: Raw Decoded Include TAF

Data at: 0104 UTC 21 Oct 2017

KCEY 210055Z AUTO 00000KT 10SM CLR 15/13 A3014 RMK AO1
KCEY 210035Z AUTO 00000KT 10SM CLR 14/14 A3014 RMK AO1
KCEY 202115Z AUTO 09005KT 10SM CLR 23/09 A3015 RMK AO1
KCEY 201835Z AUTO 13006KT 10SM CLR 23/09 A3019 RMK AO1
KCEY 201815Z AUTO 11007KT 10SM CLR 23/09 A3021 RMK AO1
KCEY 201755Z AUTO 15006KT 10SM CLR 22/10 A3022 RMK AO1
KCEY 201735Z AUTO 12006KT 060V140 10SM CLR 23/11 A3023 RMK AO1
KCEY 201515Z AUTO 14003KT 10SM CLR 19/13 A3029 RMK AO1
KCEY 201455Z AUTO 15003KT 10SM CLR 18/12 A3029 RMK AO1
KCEY 201235Z AUTO 12004KT 4SM CLR 08/08 A3027 RMK AO1
KCEY 201115Z AUTO 00000KT 2SM CLR 08/08 A3027 RMK AO1
KCEY 200955Z AUTO 15004KT 9SM CLR 08/08 A3025 RMK AO1
KCEY 200935Z AUTO 14003KT 10SM CLR 08/08 A3024 RMK AO1
KCEY 200915Z AUTO 14004KT 9SM CLR 08/08 A3024 RMK AO1
KCEY 200855Z AUTO 13005KT 10SM CLR 08/08 A3024 RMK AO1
KCEY 200835Z AUTO 13003KT 5SM CLR 08/08 A3023 RMK AO1
KCEY 200815Z AUTO 12004KT 4SM CLR 08/08 A3023 RMK AO1
KCEY 200555Z AUTO 00000KT 10SM CLR 09/09 A3023 RMK AO1
KCEY 200535Z AUTO 13003KT 10SM CLR 09/09 A3022 RMK AO1
KCEY 200415Z AUTO 17003KT 10SM 10/10 A3022 RMK AO1
KCEY 200355Z AUTO 17004KT 10SM 11/11 A3022 RMK AO1
KCEY 200235Z AUTO 16004KT 10SM 14/11 A3022 RMK AO1
KCEY 200215Z AUTO 15005KT 10SM CLR 14/12 A3021 RMK AO1
KCEY 200155Z AUTO 15003KT 10SM CLR 13/12 A3021 RMK AO1
KCEY 200135Z AUTO 14004KT 10SM 13/12 A3022 RMK AO1
KCEY 200115Z AUTO 14004KT 10SM CLR 14/12 A3022 RMK AO1
KCEY 192355Z AUTO 14003KT 10SM CLR 16/12 A3021 RMK AO1
KCEY 192335Z AUTO 15003KT 10SM CLR 17/12 A3021 RMK AO1
KCEY 192315Z AUTO 15003KT 10SM CLR 18/11 A3020 RMK AO1
KCEY 192055Z AUTO 16004KT 10SM CLR 24/09 A3021 RMK AO1
KCEY 192035Z AUTO 14003KT 10SM CLR 24/09 A3022 RMK AO1
KCEY 192015Z AUTO 16006KT 10SM CLR 24/09 A3022 RMK AO1
KCEY 191955Z AUTO 15007KT 10SM CLR 24/09 A3022 RMK AO1
KCEY 191935Z AUTO 13003KT 10SM CLR 24/09 A3022 RMK AO1
KCEY 191915Z AUTO 22004KT 10SM CLR 24/09 A3022 RMK AO1
KCEY 191855Z AUTO 18007KT 10SM CLR 23/09 A3023 RMK AO1
KCEY 191835Z AUTO 22006KT 10SM CLR 23/09 A3024 RMK AO1
KCEY 191815Z AUTO 24004KT 10SM CLR 23/09 A3025 RMK AO1
KCEY 191755Z AUTO 24006KT 10SM CLR 23/09 A3026 RMK AO1
KCEY 191635Z AUTO 19007KT 10SM CLR 20/08 A3029 RMK AO1
KCEY 191615Z AUTO 22010KT 10SM CLR 20/08 A3029 RMK AO1
KCEY 191455Z AUTO 21007KT 10SM CLR 18/08 A3029 RMK AO1